Time;durP1;ratioP1;P1;durP2;ratioP2;P2;SDS_P1;SDS_P2;PMS_P1;PMS_P2;Temp;Humidity;BMP_temperature;BMP_pressure;BME280_temperature;BME280_humidity;BME280_pressure;Samples;Min_cycle;Max_cycle;Signal;HPM_P1;HPM_P2
2023/04/07 00:00:38;;;;;;;7.65;6.88;;;;;;;1.71;57.16;62175.84;4916867;29;20262;-79
2023/04/07 00:03:05;;;;;;;12.55;7.20;;;;;;;1.66;57.51;62171.22;4931532;29;20252;-81
2023/04/07 00:05:32;;;;;;;13.00;7.32;;;;;;;1.72;57.76;62176.84;4926646;29;20201;-81
2023/04/07 00:08:00;;;;;;;8.07;7.03;;;;;;;1.72;57.20;62172.34;4929660;29;20221;-81
2023/04/07 00:10:28;;;;;;;7.53;6.82;;;;;;;1.62;57.42;62164.09;4930988;29;20206;-79
2023/04/07 00:12:55;;;;;;;8.50;7.15;;;;;;;1.71;57.30;62171.31;4929509;29;20229;-78
2023/04/07 00:15:22;;;;;;;10.45;7.32;;;;;;;1.57;57.25;62158.97;4930605;29;20217;-79
2023/04/07 00:17:49;;;;;;;9.63;7.40;;;;;;;1.68;57.26;62170.22;4930800;29;20262;-81
2023/04/07 00:20:16;;;;;;;12.52;7.50;;;;;;;1.56;56.96;62155.94;4931464;29;20209;-80
2023/04/07 00:22:43;;;;;;;6.95;6.25;;;;;;;1.59;56.92;62163.53;4939875;29;20233;-79
2023/04/07 00:25:10;;;;;;;7.68;6.75;;;;;;;1.63;57.15;62168.13;4948864;29;20205;-80
2023/04/07 00:27:39;;;;;;;9.50;7.22;;;;;;;1.64;57.08;62169.16;4941188;29;20222;-81
2023/04/07 00:30:07;;;;;;;7.95;7.00;;;;;;;1.70;56.63;62167.78;4931507;29;20202;-80
2023/04/07 00:32:34;;;;;;;12.73;8.73;;;;;;;1.68;56.21;62173.25;4927652;29;20226;-79
2023/04/07 00:35:02;;;;;;;7.95;7.03;;;;;;;1.62;56.57;62166.59;4932706;29;20503;-78
2023/04/07 00:37:29;;;;;;;14.20;7.78;;;;;;;1.65;56.28;62167.16;4927788;29;20237;-79
2023/04/07 00:39:58;;;;;;;8.30;7.10;;;;;;;1.74;56.09;62183.94;4928921;29;20199;-78
2023/04/07 00:42:25;;;;;;;15.77;6.75;;;;;;;1.68;56.55;62173.25;4929313;29;20226;-78
2023/04/07 00:44:53;;;;;;;10.35;6.57;;;;;;;1.63;56.89;62160.09;4928688;29;20214;-78
2023/04/07 00:47:20;;;;;;;9.10;6.97;;;;;;;1.71;56.75;62170.81;4933483;29;20226;-79
2023/04/07 00:49:47;;;;;;;8.43;6.43;;;;;;;1.61;56.43;62163.03;4921911;29;20202;-80
2023/04/07 00:52:15;;;;;;;11.52;7.13;;;;;;;1.55;56.71;62156.91;4916501;29;20234;-78
2023/04/07 00:54:42;;;;;;;8.15;7.22;;;;;;;1.62;56.21;62164.09;4920625;29;20218;-79
2023/04/07 00:57:09;;;;;;;10.02;6.75;;;;;;;1.56;56.05;62165.97;4933300;29;20263;-81
2023/04/07 00:59:36;;;;;;;8.02;6.40;;;;;;;1.65;55.71;62170.19;4929660;29;20229;-78
2023/04/07 01:02:11;;;;;;;8.35;6.28;;;;;;;1.51;56.00;62152.78;4931958;29;20469;-77
2023/04/07 01:04:47;;;;;;;7.32;6.57;;;;;;;1.65;56.15;62167.16;4931592;29;20202;-81
2023/04/07 01:07:18;;;;;;;7.82;6.15;;;;;;;1.58;56.39;62159.97;4936170;29;20242;-80
2023/04/07 01:09:51;;;;;;;10.63;7.90;;;;;;;1.58;56.72;62159.97;4932209;29;20269;-79
2023/04/07 01:12:26;;;;;;;9.98;7.85;;;;;;;1.64;55.48;62163.63;4933365;29;20222;-78
2023/04/07 01:14:58;;;;;;;5.32;4.82;;;;;;;1.64;55.53;62166.63;4932298;29;20209;-79
2023/04/07 01:17:28;;;;;;;9.70;6.75;;;;;;;1.65;55.18;62167.16;4931675;29;20544;-80
2023/04/07 01:19:59;;;;;;;6.97;6.28;;;;;;;1.70;55.14;62172.81;4934242;29;20198;-81
2023/04/07 01:22:33;;;;;;;9.65;6.45;;;;;;;1.65;55.52;62167.69;4935178;29;20221;-79
2023/04/07 01:25:29;;;;;;;7.93;6.10;;;;;;;1.72;55.49;62169.31;4934269;29;20198;-80
2023/04/07 01:28:10;;;;;;;7.80;6.63;;;;;;;1.74;54.81;62174.41;4905369;29;20265;-80
2023/04/07 01:30:41;;;;;;;9.48;6.40;;;;;;;1.81;54.40;62178.56;4914480;29;20258;-80
2023/04/07 01:33:11;;;;;;;8.82;6.20;;;;;;;1.90;54.38;62192.81;4935380;29;20244;-79
2023/04/07 01:35:41;;;;;;;8.30;6.38;;;;;;;1.82;54.17;62187.63;4918304;29;20222;-80
2023/04/07 01:38:11;;;;;;;7.93;6.78;;;;;;;1.86;54.17;62191.75;4934300;29;20233;-77
2023/04/07 01:40:39;;;;;;;11.80;7.03;;;;;;;1.93;53.66;62195.91;4933377;29;20294;-81
2023/04/07 01:43:07;;;;;;;7.90;6.38;;;;;;;1.95;53.04;62198.47;4933157;29;20595;-80
2023/04/07 01:45:37;;;;;;;9.35;6.95;;;;;;;2.01;53.48;62204.13;4925523;29;20332;-80
2023/04/07 01:48:07;;;;;;;9.57;7.22;;;;;;;1.97;53.27;62203.03;4932527;29;20278;-79
2023/04/07 01:50:35;;;;;;;7.05;6.18;;;;;;;2.05;52.98;62206.22;4922716;29;20283;-79
2023/04/07 01:53:04;;;;;;;8.63;6.35;;;;;;;2.07;52.74;62210.28;4914392;29;20232;-80
2023/04/07 01:55:32;;;;;;;6.72;6.13;;;;;;;2.10;52.35;62213.34;4928759;29;20222;-78
2023/04/07 01:57:59;;;;;;;11.20;6.38;;;;;;;2.17;52.65;62218.03;4932387;29;20249;-79
2023/04/07 02:00:26;;;;;;;9.00;6.97;;;;;;;2.23;52.08;62229.72;4935658;29;20222;-80
2023/04/07 02:02:59;;;;;;;8.82;6.93;;;;;;;2.29;52.02;62230.34;4913574;29;20234;-80
2023/04/07 02:05:29;;;;;;;12.43;6.75;;;;;;;2.24;51.85;62230.75;4913829;29;20235;-79
2023/04/07 02:08:01;;;;;;;12.52;6.80;;;;;;;2.08;52.21;62211.31;4919635;29;20250;-79
2023/04/07 02:10:33;;;;;;;8.10;6.68;;;;;;;2.13;52.45;62216.97;4931144;29;20198;-80
2023/04/07 02:13:02;;;;;;;7.85;5.70;;;;;;;2.14;52.21;62214.97;4921437;29;20556;-80
2023/04/07 02:15:31;;;;;;;6.47;5.75;;;;;;;2.14;52.31;62217.47;4934400;29;20221;-77
2023/04/07 02:18:00;;;;;;;8.38;6.32;;;;;;;2.21;52.33;62224.66;4935500;29;20489;-80
2023/04/07 02:20:30;;;;;;;5.85;5.35;;;;;;;2.06;52.36;62209.25;4932492;29;20205;-78
2023/04/07 02:22:58;;;;;;;7.65;6.13;;;;;;;2.20;52.57;62224.16;4944080;29;20235;-79
2023/04/07 02:25:26;;;;;;;10.30;6.63;;;;;;;2.18;52.43;62219.56;4945539;29;20218;-77
2023/04/07 02:27:53;;;;;;;7.15;5.68;;;;;;;2.15;52.19;62219.00;4931608;29;20562;-79
2023/04/07 02:30:21;;;;;;;7.47;6.15;;;;;;;2.17;52.18;62220.56;4931632;29;20230;-80
2023/04/07 02:32:48;;;;;;;9.38;6.60;;;;;;;2.32;52.05;62238.47;4934288;29;20233;-78
2023/04/07 02:35:16;;;;;;;15.05;6.57;;;;;;;2.32;52.10;62235.94;4927519;29;20199;-80
2023/04/07 02:37:45;;;;;;;7.03;6.22;;;;;;;2.38;51.74;62242.63;4913304;29;20247;-80
2023/04/07 02:40:12;;;;;;;6.75;5.75;;;;;;;2.35;51.93;62236.50;4914300;29;20288;-80
2023/04/07 02:42:40;;;;;;;5.80;5.03;;;;;;;2.33;51.77;62239.47;4915256;29;20298;-78
2023/04/07 02:45:09;;;;;;;11.20;5.65;;;;;;;2.43;51.86;62249.25;4922433;29;20225;-77
2023/04/07 02:47:37;;;;;;;9.55;6.57;;;;;;;2.46;51.84;62247.81;4926551;29;20238;-81
2023/04/07 02:50:04;;;;;;;8.57;5.35;;;;;;;2.49;51.90;62255.91;4931202;29;20515;-78
2023/04/07 02:52:32;;;;;;;6.47;5.50;;;;;;;2.55;51.59;62259.06;4932010;29;20222;-81
2023/04/07 02:55:00;;;;;;;7.45;6.50;;;;;;;2.44;51.49;62247.75;4932143;29;20226;-78
2023/04/07 02:57:27;;;;;;;8.85;7.13;;;;;;;2.49;51.66;62252.88;4933784;29;20226;-80
2023/04/07 02:59:56;;;;;;;6.60;5.72;;;;;;;2.53;51.47;62257.53;4933994;29;20257;-79
2023/04/07 03:02:24;;;;;;;6.43;5.82;;;;;;;2.57;51.80;62261.63;4933084;29;20242;-79
2023/04/07 03:04:52;;;;;;;7.53;5.90;;;;;;;2.52;52.32;62253.97;4915788;29;20483;-80
2023/04/07 03:07:19;;;;;;;16.00;5.80;;;;;;;2.48;52.09;62251.88;4928826;29;20260;-80
2023/04/07 03:09:46;;;;;;;5.75;5.15;;;;;;;2.57;52.26;62261.63;4931513;29;20241;-80
2023/04/07 03:12:14;;;;;;;9.77;6.43;;;;;;;2.62;52.45;62268.75;4931835;29;20242;-79
2023/04/07 03:14:41;;;;;;;12.55;5.88;;;;;;;2.51;52.44;62257.47;4932926;29;20198;-79
2023/04/07 03:17:09;;;;;;;7.00;6.28;;;;;;;2.43;52.56;62247.25;4934243;29;20249;-79
2023/04/07 03:19:36;;;;;;;7.32;5.82;;;;;;;2.55;52.95;62261.56;4932939;29;20298;-80
2023/04/07 03:22:03;;;;;;;6.68;6.07;;;;;;;2.11;52.91;62216.88;4924529;29;20239;-80
2023/04/07 03:24:30;;;;;;;8.32;5.50;;;;;;;2.35;52.91;62237.03;4949920;29;20276;-82
2023/04/07 03:26:57;;;;;;;6.68;5.97;;;;;;;2.26;53.01;62229.78;4935675;29;20222;-80
2023/04/07 03:29:25;;;;;;;7.43;6.28;;;;;;;2.47;53.52;62246.31;4932180;29;20205;-79
2023/04/07 03:31:53;;;;;;;8.15;5.63;;;;;;;2.33;54.11;62236.97;4926654;29;20226;-81
2023/04/07 03:34:21;;;;;;;5.97;5.47;;;;;;;2.47;53.74;62253.88;4931123;29;20217;-80
2023/04/07 03:36:48;;;;;;;6.38;5.78;;;;;;;2.38;53.04;62244.63;4933259;29;20358;-77
2023/04/07 03:39:15;;;;;;;6.28;5.68;;;;;;;2.28;53.36;62234.88;4929757;29;20233;-81
2023/04/07 03:41:43;;;;;;;7.53;5.43;;;;;;;2.35;53.21;62239.03;4931454;29;20240;-79
2023/04/07 03:44:10;;;;;;;7.88;5.47;;;;;;;2.22;53.70;62223.69;4913107;29;20269;-79
2023/04/07 03:46:38;;;;;;;7.55;5.93;;;;;;;2.26;54.13;62224.78;4916014;29;20223;-81
2023/04/07 03:49:05;;;;;;;7.85;6.25;;;;;;;2.20;54.10;62226.66;4918288;29;20403;-82
2023/04/07 03:51:32;;;;;;;7.85;6.20;;;;;;;2.12;54.34;62215.41;4931519;29;20294;-79
2023/04/07 03:54:00;;;;;;;10.05;6.05;;;;;;;2.07;54.73;62207.78;4933981;29;20186;-79
2023/04/07 03:56:28;;;;;;;9.77;5.75;;;;;;;1.97;55.80;62194.97;4929731;29;20245;-82
2023/04/07 03:58:55;;;;;;;6.70;5.50;;;;;;;2.00;55.28;62205.59;4912735;29;20234;-80
2023/04/07 04:01:22;;;;;;;7.93;5.78;;;;;;;1.93;55.37;62198.41;4916691;29;20232;-81
2023/04/07 04:03:51;;;;;;;6.70;6.00;;;;;;;2.00;55.38;62205.59;4915393;29;20259;-81
2023/04/07 04:06:18;;;;;;;6.57;5.50;;;;;;;1.97;54.48;62198.00;4929851;29;20206;-78
2023/04/07 04:08:44;;;;;;;6.10;5.20;;;;;;;2.02;54.36;62205.16;4930964;29;20205;-83
2023/04/07 04:11:12;;;;;;;12.10;6.07;;;;;;;2.00;54.44;62200.59;4932313;29;20208;-80
2023/04/07 04:13:39;;;;;;;5.57;5.13;;;;;;;2.06;54.34;62211.75;4926603;29;20202;-78
2023/04/07 04:16:07;;;;;;;8.85;6.07;;;;;;;2.09;54.09;62214.84;4924645;29;20211;-81
2023/04/07 04:18:34;;;;;;;5.65;4.55;;;;;;;2.19;53.43;62222.59;4920909;29;20210;-82
2023/04/07 04:21:02;;;;;;;6.07;5.57;;;;;;;2.22;53.46;62225.69;4934442;29;20262;-80
2023/04/07 04:23:29;;;;;;;7.72;6.15;;;;;;;2.17;53.60;62220.56;4929767;29;20226;-81
2023/04/07 04:25:59;;;;;;;8.20;5.85;;;;;;;2.01;53.15;62207.16;4934164;29;20202;-80
2023/04/07 04:28:26;;;;;;;11.85;5.88;;;;;;;2.35;53.05;62239.03;4938239;29;20229;-80
2023/04/07 04:30:53;;;;;;;7.78;5.53;;;;;;;2.43;52.93;62247.25;4936485;29;20202;-80
2023/04/07 04:33:20;;;;;;;6.70;5.13;;;;;;;2.49;52.63;62253.41;4934587;29;20241;-78
2023/04/07 04:35:47;;;;;;;7.07;6.05;;;;;;;2.60;52.38;62267.22;4935203;29;20197;-80
2023/04/07 04:38:16;;;;;;;8.10;5.35;;;;;;;2.67;52.20;62273.91;4938609;29;20252;-80
2023/04/07 04:40:43;;;;;;;7.45;6.05;;;;;;;2.63;52.18;62264.75;4932485;29;20286;-80
2023/04/07 04:43:10;;;;;;;7.45;6.07;;;;;;;2.60;52.82;62261.69;4932971;29;20245;-79
2023/04/07 04:45:37;;;;;;;9.35;6.32;;;;;;;2.68;52.97;62272.41;4935177;29;20205;-80
2023/04/07 04:48:05;;;;;;;7.82;5.97;;;;;;;2.80;53.40;62282.22;4935771;29;20245;-79
2023/04/07 04:50:31;;;;;;;11.07;6.22;;;;;;;2.85;53.54;62292.38;4934941;29;20206;-80
2023/04/07 04:52:58;;;;;;;9.40;5.65;;;;;;;2.88;52.54;62295.47;4937973;29;20225;-80
2023/04/07 04:55:27;;;;;;;7.88;5.85;;;;;;;3.00;52.16;62300.78;4934116;29;20510;-78
2023/04/07 04:57:54;;;;;;;9.93;5.85;;;;;;;3.00;51.11;62305.31;4933986;29;20246;-78
2023/04/07 05:00:21;;;;;;;8.90;5.60;;;;;;;2.94;52.02;62299.13;4935893;29;20253;-79
2023/04/07 05:02:48;;;;;;;9.57;6.68;;;;;;;2.75;54.49;62280.13;4936704;29;20237;-80
2023/04/07 05:05:15;;;;;;;8.18;7.28;;;;;;;2.59;55.97;62263.19;4931292;29;20233;-78
2023/04/07 05:07:42;;;;;;;11.55;7.18;;;;;;;2.44;57.00;62247.75;4939555;29;20241;-81
2023/04/07 05:10:10;;;;;;;7.90;6.65;;;;;;;2.55;56.92;62261.56;4937109;29;20194;-80
2023/04/07 05:12:38;;;;;;;12.68;6.88;;;;;;;2.54;56.31;62261.06;4937415;29;20474;-80
2023/04/07 05:15:07;;;;;;;11.10;6.88;;;;;;;2.63;56.75;62270.31;4937266;29;20261;-81
2023/04/07 05:17:34;;;;;;;11.23;7.00;;;;;;;2.82;56.51;62286.78;4934553;29;20245;-80
2023/04/07 05:20:01;;;;;;;10.15;6.75;;;;;;;2.83;56.49;62285.81;4935059;29;20232;-81
2023/04/07 05:22:29;;;;;;;13.18;6.97;;;;;;;2.73;56.90;62280.56;4939115;29;20261;-81
2023/04/07 05:24:56;;;;;;;8.75;7.03;;;;;;;2.89;57.45;62299.00;4931876;29;20198;-81
2023/04/07 05:27:23;;;;;;;7.88;6.57;;;;;;;2.97;57.71;62300.22;4936313;29;20229;-80
2023/04/07 05:29:52;;;;;;;6.85;5.97;;;;;;;2.75;57.00;62280.13;4935917;29;20198;-80
2023/04/07 05:32:19;;;;;;;8.05;7.05;;;;;;;2.96;57.89;62301.69;4933795;29;20218;-81
2023/04/07 05:34:46;;;;;;;10.52;7.00;;;;;;;3.41;57.84;62344.94;4938132;29;20229;-80
2023/04/07 05:37:13;;;;;;;11.98;8.32;;;;;;;3.74;57.89;62380.84;4933605;29;20300;-80
2023/04/07 05:39:40;;;;;;;16.20;9.10;;;;;;;3.84;57.73;62388.63;4935540;29;20238;-80
2023/04/07 05:42:07;;;;;;;11.25;8.18;;;;;;;3.87;57.45;62396.75;4934839;29;20218;-80
2023/04/07 05:44:35;;;;;;;11.75;8.45;;;;;;;3.92;56.83;62404.91;4934705;29;20257;-81
2023/04/07 05:47:07;;;;;;;12.48;8.68;;;;;;;4.29;56.69;62440.47;4933394;29;20222;-81
2023/04/07 05:49:34;;;;;;;12.10;8.70;;;;;;;4.68;56.23;62477.56;4933717;29;20270;-80
2023/04/07 05:52:02;;;;;;;14.32;8.38;;;;;;;4.78;55.38;62487.84;4932777;29;20250;-80
2023/04/07 05:54:29;;;;;;;9.43;8.43;;;;;;;5.05;54.64;62515.16;4935196;29;20202;-79
2023/04/07 05:56:57;;;;;;;12.70;8.98;;;;;;;5.04;53.89;62517.16;4918730;29;20253;-79
2023/04/07 05:59:24;;;;;;;11.70;8.25;;;;;;;4.81;54.53;62488.44;4920307;29;20241;-80
2023/04/07 06:01:51;;;;;;;10.98;8.35;;;;;;;4.45;55.41;62454.41;4915449;29;20234;-79
2023/04/07 06:04:20;;;;;;;14.63;9.30;;;;;;;4.45;55.93;62456.94;4924912;29;20258;-80
2023/04/07 06:06:48;;;;;;;9.68;7.90;;;;;;;4.54;55.68;62466.19;4934576;29;20238;-80
2023/04/07 06:09:15;;;;;;;17.17;9.77;;;;;;;4.61;56.42;62472.88;4936710;29;20202;-81
2023/04/07 06:11:42;;;;;;;16.02;11.57;;;;;;;4.58;56.44;62469.81;4936784;29;20237;-80
2023/04/07 06:14:09;;;;;;;13.93;10.15;;;;;;;4.65;56.45;62474.50;4929276;29;20229;-81
2023/04/07 06:16:36;;;;;;;16.08;10.68;;;;;;;4.82;56.88;62493.97;4916213;29;20227;-80
2023/04/07 06:19:03;;;;;;;14.73;10.35;;;;;;;4.86;56.13;62496.09;4913257;29;20209;-80
2023/04/07 06:21:31;;;;;;;13.35;9.98;;;;;;;4.96;56.13;62505.88;4913779;29;20224;-80
2023/04/07 06:23:59;;;;;;;12.48;9.90;;;;;;;4.85;55.82;62495.06;4944591;29;20218;-81
2023/04/07 06:26:26;;;;;;;19.60;10.13;;;;;;;5.09;55.53;62519.28;4930259;29;20205;-80
2023/04/07 06:28:53;;;;;;;13.52;10.15;;;;;;;5.26;54.83;62537.31;4932503;29;20198;-80
2023/04/07 06:31:20;;;;;;;14.80;10.40;;;;;;;5.01;54.83;62513.56;4931462;29;20210;-80
2023/04/07 06:33:47;;;;;;;16.60;9.95;;;;;;;5.13;55.79;62526.44;4933108;29;20250;-81
2023/04/07 06:36:15;;;;;;;11.88;9.18;;;;;;;5.06;53.73;62516.19;4932619;29;20217;-81
2023/04/07 06:38:44;;;;;;;14.95;9.95;;;;;;;5.12;52.93;62519.84;4932556;29;20194;-80
2023/04/07 06:41:15;;;;;;;14.00;9.02;;;;;;;5.31;53.20;62550.03;4933037;29;20234;-79
2023/04/07 06:43:42;;;;;;;14.38;9.40;;;;;;;5.55;52.83;62566.66;4935744;29;20202;-80
2023/04/07 06:46:09;;;;;;;13.40;8.48;;;;;;;5.43;52.50;62554.81;4932249;29;20229;-79
2023/04/07 06:48:36;;;;;;;13.20;9.80;;;;;;;5.17;53.13;62527.50;4931241;29;20285;-79
2023/04/07 06:51:04;;;;;;;12.40;9.70;;;;;;;5.38;53.03;62549.16;4931555;29;20253;-80
2023/04/07 06:53:31;;;;;;;18.20;9.85;;;;;;;5.42;53.60;62553.78;4928064;29;20230;-81
2023/04/07 06:56:09;;;;;;;15.13;9.15;;;;;;;5.47;52.72;62560.94;4933348;29;20198;-80
2023/04/07 06:58:37;;;;;;;11.68;8.68;;;;;;;5.43;51.53;62554.81;4929820;29;20217;-80
2023/04/07 07:01:04;;;;;;;15.88;9.60;;;;;;;5.18;52.60;62523.47;4927428;29;20246;-78
2023/04/07 07:03:32;;;;;;;9.50;7.95;;;;;;;5.17;52.90;62528.03;4928332;29;20237;-78
2023/04/07 07:06:00;;;;;;;8.10;7.03;;;;;;;5.33;51.82;62547.03;4936085;29;20198;-78
2023/04/07 07:08:29;;;;;;;5.95;5.05;;;;;;;5.45;50.15;62553.81;4950759;29;20221;-78
2023/04/07 07:10:57;;;;;;;6.07;5.50;;;;;;;5.79;48.54;62596.44;4930215;29;20211;-81
2023/04/07 07:13:27;;;;;;;5.25;4.78;;;;;;;6.15;47.50;62625.97;4917458;29;20281;-81
2023/04/07 07:15:54;;;;;;;8.80;5.47;;;;;;;6.25;47.00;62638.28;4931182;29;20218;-77
2023/04/07 07:18:21;;;;;;;8.25;5.60;;;;;;;6.29;46.67;62645.47;4913184;29;20234;-81
2023/04/07 07:20:49;;;;;;;6.22;5.60;;;;;;;6.36;44.75;62649.63;4912754;29;20517;-79
2023/04/07 07:23:16;;;;;;;6.63;5.47;;;;;;;6.27;45.48;62640.88;4939785;29;20518;-80
2023/04/07 07:25:46;;;;;;;6.05;5.47;;;;;;;6.06;45.63;62616.69;4940535;29;20213;-80
2023/04/07 07:28:20;;;;;;;5.22;4.72;;;;;;;5.34;46.79;62547.53;4940248;29;20731;-79
2023/04/07 07:30:56;;;;;;;7.10;6.40;;;;;;;5.39;47.39;62545.63;4941238;28;20186;-82
2023/04/07 07:33:39;;;;;;;7.03;6.22;;;;;;;5.45;46.69;62556.84;4939427;28;20205;-80
2023/04/07 07:36:13;;;;;;;6.93;5.95;;;;;;;5.34;47.16;62543.00;4941475;28;20182;-81
2023/04/07 07:38:41;;;;;;;7.68;5.95;;;;;;;5.17;46.96;62530.03;4936922;29;20200;-78
2023/04/07 07:41:08;;;;;;;7.03;6.32;;;;;;;5.10;47.92;62522.81;4913391;29;20238;-80
2023/04/07 07:43:36;;;;;;;8.00;5.75;;;;;;;5.64;46.97;62580.97;4913123;29;20458;-79
2023/04/07 07:46:04;;;;;;;5.88;5.30;;;;;;;5.95;45.91;62602.31;4926174;29;20591;-81
2023/04/07 07:48:31;;;;;;;6.60;5.88;;;;;;;6.07;45.68;62620.25;4935681;29;20232;-81
2023/04/07 07:50:58;;;;;;;7.75;5.97;;;;;;;6.28;45.78;62641.88;4930948;29;20383;-79
2023/04/07 07:53:26;;;;;;;6.30;5.70;;;;;;;6.54;44.81;62668.69;4933537;29;20313;-81
2023/04/07 07:55:54;;;;;;;7.18;5.97;;;;;;;6.72;44.05;62686.75;4934832;29;20190;-82
2023/04/07 07:58:21;;;;;;;6.28;5.68;;;;;;;6.95;44.21;62710.47;4935305;29;20256;-79
2023/04/07 08:00:48;;;;;;;5.82;5.30;;;;;;;7.26;43.63;62744.47;4930275;29;20236;-81
2023/04/07 08:03:18;;;;;;;5.63;5.13;;;;;;;7.43;43.25;62762.03;4925889;29;20421;-79
2023/04/07 08:05:48;;;;;;;8.00;5.38;;;;;;;7.90;41.97;62808.50;4934437;29;20202;-81
2023/04/07 08:08:15;;;;;;;6.28;5.30;;;;;;;8.51;40.61;62873.53;4914284;29;20226;-79
2023/04/07 08:10:42;;;;;;;7.03;5.80;;;;;;;8.52;41.30;62877.13;4910843;29;20194;-81
2023/04/07 08:13:09;;;;;;;7.93;5.50;;;;;;;8.55;40.41;62872.63;4914107;29;20266;-79
2023/04/07 08:15:36;;;;;;;6.45;5.70;;;;;;;8.28;40.16;62847.25;4913455;29;20209;-80
2023/04/07 08:18:05;;;;;;;7.68;5.38;;;;;;;8.32;40.10;62850.88;4933562;29;20232;-81
2023/04/07 08:20:35;;;;;;;6.00;5.30;;;;;;;8.43;40.43;62865.28;4933168;29;20395;-82
2023/04/07 08:23:02;;;;;;;6.63;5.93;;;;;;;8.43;39.76;62867.31;4939634;29;20217;-82
2023/04/07 08:25:29;;;;;;;4.88;4.47;;;;;;;8.55;39.65;62870.06;4944726;29;20238;-81
2023/04/07 08:27:56;;;;;;;7.35;4.93;;;;;;;8.61;39.17;62881.34;4933292;29;20564;-79
2023/04/07 08:30:24;;;;;;;5.40;4.90;;;;;;;8.67;39.05;62884.50;4931096;29;20402;-82
2023/04/07 08:32:51;;;;;;;5.18;4.75;;;;;;;8.37;39.41;62853.50;4912811;29;20227;-82
2023/04/07 08:35:18;;;;;;;7.00;5.18;;;;;;;8.34;39.29;62856.00;4912675;29;20214;-83
2023/04/07 08:37:47;;;;;;;5.35;4.90;;;;;;;8.60;38.77;62877.25;4914874;29;20234;-80
2023/04/07 08:40:14;;;;;;;5.72;5.22;;;;;;;8.55;39.90;62874.63;4913486;29;20234;-81
2023/04/07 08:42:43;;;;;;;7.25;5.10;;;;;;;7.82;40.61;62802.25;4912468;29;20229;-83
2023/04/07 08:45:12;;;;;;;6.82;5.07;;;;;;;7.82;41.14;62802.25;4913828;29;20203;-82
2023/04/07 08:47:43;;;;;;;6.40;5.78;;;;;;;7.51;40.91;62768.25;4915365;29;20230;-81
2023/04/07 08:50:12;;;;;;;7.60;5.53;;;;;;;8.15;40.91;62836.88;4913917;29;20203;-81
2023/04/07 08:52:44;;;;;;;5.78;5.10;;;;;;;8.49;40.46;62868.44;4912929;29;20287;-81
2023/04/07 08:55:14;;;;;;;11.00;5.00;;;;;;;9.01;39.42;62927.22;4913629;29;20266;-80
2023/04/07 08:57:42;;;;;;;6.43;4.95;;;;;;;9.05;39.74;62928.84;4914127;29;20273;-80
2023/04/07 09:00:10;;;;;;;13.40;5.35;;;;;;;8.95;39.78;62915.97;4930225;29;20609;-80
2023/04/07 09:02:39;;;;;;;5.68;5.05;;;;;;;8.36;40.80;62858.06;4933655;29;20293;-79
2023/04/07 09:05:10;;;;;;;7.18;5.50;;;;;;;8.32;40.99;62853.41;4931285;29;20365;-81
2023/04/07 09:07:39;;;;;;;4.50;3.97;;;;;;;8.12;41.39;62835.78;4922354;29;20231;-81
2023/04/07 09:10:10;;;;;;;5.63;4.97;;;;;;;8.33;41.16;62854.97;4931480;29;20210;-83
2023/04/07 09:12:43;;;;;;;5.93;5.32;;;;;;;8.35;40.67;62856.50;4940370;29;20218;-83
2023/04/07 09:15:10;;;;;;;5.38;4.95;;;;;;;8.57;40.35;62879.22;4934559;29;20261;-81
2023/04/07 09:17:37;;;;;;;5.53;5.00;;;;;;;8.79;40.36;62901.97;4934499;29;20241;-82
2023/04/07 09:20:05;;;;;;;4.82;4.53;;;;;;;9.14;39.90;62938.66;4936992;29;20198;-81
2023/04/07 09:22:37;;;;;;;6.53;5.28;;;;;;;9.38;39.07;62960.41;4938463;29;20284;-82
2023/04/07 09:25:14;;;;;;;5.30;4.80;;;;;;;9.65;39.31;62992.88;4951388;29;20198;-82
2023/04/07 09:27:57;;;;;;;4.80;4.38;;;;;;;9.65;37.72;62987.78;4934118;29;20214;-83
2023/04/07 09:30:24;;;;;;;5.00;4.63;;;;;;;9.41;37.53;62963.50;4937464;29;20253;-79
2023/04/07 09:32:52;;;;;;;5.28;4.78;;;;;;;9.65;38.23;62995.41;4933643;29;20218;-82
2023/04/07 09:35:21;;;;;;;4.78;4.38;;;;;;;9.86;38.35;63010.03;4931003;29;20206;-82
2023/04/07 09:38:02;;;;;;;4.82;4.43;;;;;;;9.65;37.69;62990.34;4917924;29;20223;-79
2023/04/07 09:40:29;;;;;;;6.72;5.93;;;;;;;9.23;38.45;62945.41;4923454;29;20210;-78
2023/04/07 09:43:01;;;;;;;5.15;4.65;;;;;;;9.05;39.30;62931.38;4932480;29;20269;-80
2023/04/07 09:45:30;;;;;;;5.82;5.00;;;;;;;9.00;40.21;62926.72;4916863;29;20226;-80
2023/04/07 09:48:00;;;;;;;6.80;4.95;;;;;;;9.44;39.21;62968.63;4917768;29;20242;-81
2023/04/07 09:50:35;;;;;;;5.72;4.93;;;;;;;9.40;39.08;62967.56;4927751;29;20372;-81
2023/04/07 09:53:03;;;;;;;8.25;4.90;;;;;;;9.06;39.25;62927.84;4932029;29;20413;-81
2023/04/07 09:55:32;;;;;;;5.43;4.93;;;;;;;8.85;40.57;62908.16;4933554;29;20313;-81
2023/04/07 09:58:03;;;;;;;5.80;5.25;;;;;;;8.67;40.61;62889.56;4928761;29;20220;-80
2023/04/07 10:00:30;;;;;;;7.45;4.75;;;;;;;8.64;41.29;62887.00;4933935;29;20224;-82
2023/04/07 10:02:58;;;;;;;5.15;4.75;;;;;;;8.59;41.18;62878.75;4933826;29;20238;-79
2023/04/07 10:05:26;;;;;;;7.53;6.10;;;;;;;8.54;40.74;62876.13;4934122;29;20210;-77
2023/04/07 10:07:53;;;;;;;5.90;5.30;;;;;;;7.90;42.54;62808.50;4932434;29;20217;-83
2023/04/07 10:10:20;;;;;;;6.65;4.22;;;;;;;8.28;41.49;62849.28;4934305;29;20268;-82
2023/04/07 10:12:49;;;;;;;5.38;4.72;;;;;;;8.46;41.72;62868.38;4932637;29;20237;-82
2023/04/07 10:15:18;;;;;;;5.63;5.13;;;;;;;8.14;41.42;62837.84;4938029;29;20194;-81
2023/04/07 10:17:49;;;;;;;8.18;5.10;;;;;;;7.85;42.83;62805.38;4934243;29;20222;-78
2023/04/07 10:20:19;;;;;;;7.05;4.80;;;;;;;7.87;42.85;62802.88;4931675;29;20218;-80
2023/04/07 10:22:50;;;;;;;6.30;4.90;;;;;;;7.96;42.27;62816.72;4935094;29;20233;-81
2023/04/07 10:25:19;;;;;;;5.30;4.80;;;;;;;7.65;43.03;62790.31;4935231;29;20266;-81
2023/04/07 10:27:51;;;;;;;6.25;5.65;;;;;;;7.59;42.80;62776.00;4932250;29;20230;-81
2023/04/07 10:30:25;;;;;;;6.40;5.50;;;;;;;7.92;42.93;62810.56;4935923;29;20225;-82
2023/04/07 10:32:53;;;;;;;6.18;5.57;;;;;;;8.16;42.37;62832.81;4934710;29;20242;-79
2023/04/07 10:35:21;;;;;;;6.00;5.22;;;;;;;7.70;42.89;62792.94;4927049;29;20230;-81
2023/04/07 10:38:12;;;;;;;5.80;5.30;;;;;;;7.99;43.29;62819.81;4914887;29;20251;-81
2023/04/07 10:40:40;;;;;;;7.00;6.28;;;;;;;8.39;42.19;62863.69;4928618;29;20253;-82
2023/04/07 10:43:10;;;;;;;5.97;4.65;;;;;;;8.34;42.02;62855.47;4934598;29;20218;-81
2023/04/07 10:46:02;;;;;;;7.25;5.82;;;;;;;8.54;42.10;62878.69;4933404;29;20608;-82
2023/04/07 10:48:31;;;;;;;6.70;6.10;;;;;;;8.82;41.18;62903.03;4934373;29;20242;-79
2023/04/07 10:51:19;;;;;;;5.88;5.13;;;;;;;8.78;41.36;62900.94;4936640;29;20200;-83
2023/04/07 10:54:25;;;;;;;6.35;5.68;;;;;;;9.05;40.30;62926.28;4930400;29;20202;-83
2023/04/07 10:57:15;;;;;;;5.30;4.80;;;;;;;8.91;39.76;62909.28;4933008;29;20526;-79
2023/04/07 11:00:16;;;;;;;5.95;5.40;;;;;;;9.17;40.23;62941.75;4915981;29;20206;-81
2023/04/07 11:02:47;;;;;;;5.40;4.90;;;;;;;9.44;39.97;62968.63;4913618;29;20451;-81
2023/04/07 11:05:23;;;;;;;8.35;5.32;;;;;;;9.57;39.79;62977.50;4914583;29;20203;-81
2023/04/07 11:07:56;;;;;;;6.47;5.22;;;;;;;9.69;39.28;62995.00;4927930;29;20232;-81
2023/04/07 11:10:23;;;;;;;9.82;6.15;;;;;;;9.23;39.22;62947.94;4936311;29;20197;-79
2023/04/07 11:13:05;;;;;;;7.28;6.50;;;;;;;8.51;43.42;62873.03;4932216;29;20262;-78
2023/04/07 11:15:32;;;;;;;6.97;5.78;;;;;;;8.11;44.83;62832.72;4931780;29;20425;-81
2023/04/07 11:18:27;;;;;;;6.32;5.72;;;;;;;7.99;44.67;62817.28;4932071;29;20218;-79
2023/04/07 11:20:57;;;;;;;7.78;6.07;;;;;;;7.48;46.25;62767.19;4930548;29;20234;-79
2023/04/07 11:23:26;;;;;;;6.60;5.95;;;;;;;6.98;47.32;62711.56;4945407;29;20233;-78
2023/04/07 11:26:00;;;;;;;8.02;6.18;;;;;;;7.04;46.30;62727.34;4948972;29;20204;-78
2023/04/07 11:28:27;;;;;;;6.07;5.47;;;;;;;6.84;47.28;62699.66;4913630;29;20245;-78
2023/04/07 11:30:55;;;;;;;10.98;6.68;;;;;;;6.60;48.44;62676.91;4913866;29;20364;-80
2023/04/07 11:33:23;;;;;;;6.43;5.80;;;;;;;6.98;48.20;62713.56;4910804;29;20233;-79
2023/04/07 11:35:55;;;;;;;10.55;6.00;;;;;;;7.01;47.37;62719.72;4917296;29;20208;-79
2023/04/07 11:38:26;;;;;;;6.32;4.85;;;;;;;6.90;48.47;62707.84;4931632;29;20285;-79
2023/04/07 11:40:54;;;;;;;7.95;7.15;;;;;;;7.25;48.02;62738.88;4930175;29;20225;-79
2023/04/07 11:43:23;;;;;;;13.05;4.55;;;;;;;7.24;46.81;62744.94;4931562;29;20214;-79
2023/04/07 11:46:10;;;;;;;9.23;5.85;;;;;;;7.34;47.15;62750.72;4929472;29;20269;-80
2023/04/07 11:48:39;;;;;;;3.92;3.58;;;;;;;7.70;46.19;62787.88;4933582;29;20241;-78